sensor_id;sensor_type;location;lat;lon;timestamp;P1;durP1;ratioP1;P2;durP2;ratioP2
18983;SDS011;9626;52.552;13.436;2024-01-11T00:00:43;23.43;;;11.77;;
18983;SDS011;9626;52.552;13.436;2024-01-11T00:03:09;22.77;;;11.33;;
18983;SDS011;9626;52.552;13.436;2024-01-11T00:05:35;23.00;;;11.40;;
18983;SDS011;9626;52.552;13.436;2024-01-11T00:08:01;25.20;;;13.73;;
18983;SDS011;9626;52.552;13.436;2024-01-11T00:10:28;24.20;;;14.27;;
18983;SDS011;9626;52.552;13.436;2024-01-11T00:12:54;22.67;;;13.60;;
18983;SDS011;9626;52.552;13.436;2024-01-11T00:15:20;25.43;;;14.03;;
18983;SDS011;9626;52.552;13.436;2024-01-11T00:17:46;22.67;;;12.17;;
18983;SDS011;9626;52.552;13.436;2024-01-11T00:20:12;19.23;;;10.03;;
18983;SDS011;9626;52.552;13.436;2024-01-11T00:22:38;19.50;;;10.13;;
18983;SDS011;9626;52.552;13.436;2024-01-11T00:25:04;15.70;;;9.93;;
18983;SDS011;9626;52.552;13.436;2024-01-11T00:27:30;14.53;;;8.87;;
18983;SDS011;9626;52.552;13.436;2024-01-11T00:29:56;16.97;;;7.40;;
18983;SDS011;9626;52.552;13.436;2024-01-11T00:32:22;13.10;;;7.07;;
18983;SDS011;9626;52.552;13.436;2024-01-11T00:34:48;15.33;;;7.03;;
18983;SDS011;9626;52.552;13.436;2024-01-11T00:37:14;21.20;;;8.37;;
18983;SDS011;9626;52.552;13.436;2024-01-11T00:39:40;17.10;;;8.80;;
18983;SDS011;9626;52.552;13.436;2024-01-11T00:42:06;15.07;;;6.67;;
18983;SDS011;9626;52.552;13.436;2024-01-11T00:44:32;14.53;;;6.57;;
18983;SDS011;9626;52.552;13.436;2024-01-11T00:46:58;12.60;;;6.33;;
18983;SDS011;9626;52.552;13.436;2024-01-11T00:49:24;13.83;;;7.73;;
18983;SDS011;9626;52.552;13.436;2024-01-11T00:51:50;15.67;;;8.97;;
18983;SDS011;9626;52.552;13.436;2024-01-11T00:54:16;14.30;;;6.87;;
18983;SDS011;9626;52.552;13.436;2024-01-11T00:56:42;16.40;;;6.80;;
18983;SDS011;9626;52.552;13.436;2024-01-11T00:59:08;12.33;;;5.93;;
18983;SDS011;9626;52.552;13.436;2024-01-11T01:01:34;13.27;;;5.97;;
18983;SDS011;9626;52.552;13.436;2024-01-11T01:04:00;13.00;;;6.30;;
18983;SDS011;9626;52.552;13.436;2024-01-11T01:06:26;12.30;;;6.17;;
18983;SDS011;9626;52.552;13.436;2024-01-11T01:08:53;11.40;;;5.33;;
18983;SDS011;9626;52.552;13.436;2024-01-11T01:11:21;10.60;;;5.70;;
18983;SDS011;9626;52.552;13.436;2024-01-11T01:13:47;11.43;;;6.03;;
18983;SDS011;9626;52.552;13.436;2024-01-11T01:16:13;10.43;;;5.07;;
18983;SDS011;9626;52.552;13.436;2024-01-11T01:18:39;13.47;;;6.57;;
18983;SDS011;9626;52.552;13.436;2024-01-11T01:21:05;16.30;;;6.20;;
18983;SDS011;9626;52.552;13.436;2024-01-11T01:23:32;12.57;;;5.77;;
18983;SDS011;9626;52.552;13.436;2024-01-11T01:26:01;12.33;;;5.63;;
18983;SDS011;9626;52.552;13.436;2024-01-11T01:28:27;12.73;;;6.20;;
18983;SDS011;9626;52.552;13.436;2024-01-11T01:30:53;13.73;;;7.73;;
18983;SDS011;9626;52.552;13.436;2024-01-11T01:33:19;15.80;;;7.53;;
18983;SDS011;9626;52.552;13.436;2024-01-11T01:35:45;12.63;;;7.60;;
18983;SDS011;9626;52.552;13.436;2024-01-11T01:38:12;16.00;;;7.90;;
18983;SDS011;9626;52.552;13.436;2024-01-11T01:40:38;16.47;;;7.27;;
18983;SDS011;9626;52.552;13.436;2024-01-11T01:43:06;11.63;;;5.43;;
18983;SDS011;9626;52.552;13.436;2024-01-11T01:45:34;12.97;;;6.83;;
18983;SDS011;9626;52.552;13.436;2024-01-11T01:48:00;14.27;;;8.47;;
18983;SDS011;9626;52.552;13.436;2024-01-11T01:50:27;16.50;;;8.83;;
18983;SDS011;9626;52.552;13.436;2024-01-11T01:52:53;14.03;;;8.03;;
18983;SDS011;9626;52.552;13.436;2024-01-11T01:55:19;18.33;;;8.50;;
18983;SDS011;9626;52.552;13.436;2024-01-11T01:57:46;16.47;;;9.33;;
18983;SDS011;9626;52.552;13.436;2024-01-11T02:00:14;16.77;;;9.53;;
18983;SDS011;9626;52.552;13.436;2024-01-11T02:02:40;20.97;;;9.43;;
18983;SDS011;9626;52.552;13.436;2024-01-11T02:05:10;22.47;;;9.73;;
18983;SDS011;9626;52.552;13.436;2024-01-11T02:07:38;19.60;;;9.83;;
18983;SDS011;9626;52.552;13.436;2024-01-11T02:10:05;21.57;;;9.97;;
18983;SDS011;9626;52.552;13.436;2024-01-11T02:12:33;19.43;;;9.80;;
18983;SDS011;9626;52.552;13.436;2024-01-11T02:15:01;22.60;;;10.47;;
18983;SDS011;9626;52.552;13.436;2024-01-11T02:17:29;18.67;;;8.53;;
18983;SDS011;9626;52.552;13.436;2024-01-11T02:19:56;16.47;;;7.57;;
18983;SDS011;9626;52.552;13.436;2024-01-11T02:22:24;17.63;;;7.17;;
18983;SDS011;9626;52.552;13.436;2024-01-11T02:24:55;17.20;;;9.53;;
18983;SDS011;9626;52.552;13.436;2024-01-11T02:27:23;15.40;;;7.37;;
18983;SDS011;9626;52.552;13.436;2024-01-11T02:29:50;17.00;;;9.47;;
18983;SDS011;9626;52.552;13.436;2024-01-11T02:32:16;16.10;;;9.13;;
18983;SDS011;9626;52.552;13.436;2024-01-11T02:34:42;16.53;;;6.60;;
18983;SDS011;9626;52.552;13.436;2024-01-11T02:37:09;15.07;;;8.87;;
18983;SDS011;9626;52.552;13.436;2024-01-11T02:39:35;17.93;;;7.50;;
18983;SDS011;9626;52.552;13.436;2024-01-11T02:42:02;18.00;;;6.90;;
18983;SDS011;9626;52.552;13.436;2024-01-11T02:44:28;13.73;;;6.83;;
18983;SDS011;9626;52.552;13.436;2024-01-11T02:46:54;20.97;;;6.27;;
18983;SDS011;9626;52.552;13.436;2024-01-11T02:49:20;23.20;;;8.83;;
18983;SDS011;9626;52.552;13.436;2024-01-11T02:51:46;14.97;;;6.40;;
18983;SDS011;9626;52.552;13.436;2024-01-11T02:54:12;15.20;;;6.83;;
18983;SDS011;9626;52.552;13.436;2024-01-11T02:56:39;16.40;;;6.83;;
18983;SDS011;9626;52.552;13.436;2024-01-11T02:59:05;21.60;;;9.47;;
18983;SDS011;9626;52.552;13.436;2024-01-11T03:01:31;18.83;;;7.77;;
18983;SDS011;9626;52.552;13.436;2024-01-11T03:03:58;18.87;;;9.63;;
18983;SDS011;9626;52.552;13.436;2024-01-11T03:06:24;18.03;;;9.07;;
18983;SDS011;9626;52.552;13.436;2024-01-11T03:08:50;18.00;;;9.17;;
18983;SDS011;9626;52.552;13.436;2024-01-11T03:11:16;18.23;;;9.23;;
18983;SDS011;9626;52.552;13.436;2024-01-11T03:13:42;22.37;;;9.03;;
18983;SDS011;9626;52.552;13.436;2024-01-11T03:16:09;17.30;;;8.80;;
18983;SDS011;9626;52.552;13.436;2024-01-11T03:18:35;17.43;;;9.13;;
18983;SDS011;9626;52.552;13.436;2024-01-11T03:21:01;16.87;;;9.37;;
18983;SDS011;9626;52.552;13.436;2024-01-11T03:23:27;12.73;;;6.83;;
18983;SDS011;9626;52.552;13.436;2024-01-11T03:25:53;21.13;;;8.73;;
18983;SDS011;9626;52.552;13.436;2024-01-11T03:28:19;19.47;;;7.83;;
18983;SDS011;9626;52.552;13.436;2024-01-11T03:30:45;25.60;;;11.40;;
18983;SDS011;9626;52.552;13.436;2024-01-11T03:33:11;20.33;;;10.23;;
18983;SDS011;9626;52.552;13.436;2024-01-11T03:35:37;22.43;;;10.50;;
18983;SDS011;9626;52.552;13.436;2024-01-11T03:38:06;21.43;;;9.93;;
18983;SDS011;9626;52.552;13.436;2024-01-11T03:40:32;19.40;;;9.90;;
18983;SDS011;9626;52.552;13.436;2024-01-11T03:42:58;20.07;;;9.03;;
18983;SDS011;9626;52.552;13.436;2024-01-11T03:45:24;14.77;;;7.10;;
18983;SDS011;9626;52.552;13.436;2024-01-11T03:47:50;16.27;;;7.73;;
18983;SDS011;9626;52.552;13.436;2024-01-11T03:50:16;18.97;;;10.20;;
18983;SDS011;9626;52.552;13.436;2024-01-11T03:52:42;22.37;;;9.83;;
18983;SDS011;9626;52.552;13.436;2024-01-11T03:55:08;14.10;;;6.37;;
18983;SDS011;9626;52.552;13.436;2024-01-11T03:57:34;17.93;;;7.30;;
18983;SDS011;9626;52.552;13.436;2024-01-11T04:00:00;17.87;;;6.80;;
18983;SDS011;9626;52.552;13.436;2024-01-11T04:02:26;17.40;;;7.37;;
18983;SDS011;9626;52.552;13.436;2024-01-11T04:04:53;16.23;;;6.97;;
18983;SDS011;9626;52.552;13.436;2024-01-11T04:07:19;15.53;;;8.63;;
18983;SDS011;9626;52.552;13.436;2024-01-11T04:09:45;19.50;;;7.50;;
18983;SDS011;9626;52.552;13.436;2024-01-11T04:12:11;14.70;;;7.07;;
18983;SDS011;9626;52.552;13.436;2024-01-11T04:14:38;15.47;;;7.10;;
18983;SDS011;9626;52.552;13.436;2024-01-11T04:17:05;22.93;;;10.03;;
18983;SDS011;9626;52.552;13.436;2024-01-11T04:19:31;20.10;;;8.47;;
18983;SDS011;9626;52.552;13.436;2024-01-11T04:21:58;18.27;;;8.33;;
18983;SDS011;9626;52.552;13.436;2024-01-11T04:24:24;17.07;;;7.93;;
18983;SDS011;9626;52.552;13.436;2024-01-11T04:26:50;18.03;;;8.80;;
18983;SDS011;9626;52.552;13.436;2024-01-11T04:29:16;17.07;;;7.27;;
18983;SDS011;9626;52.552;13.436;2024-01-11T04:31:42;22.53;;;7.10;;
18983;SDS011;9626;52.552;13.436;2024-01-11T04:34:08;21.77;;;7.70;;
18983;SDS011;9626;52.552;13.436;2024-01-11T04:36:37;17.47;;;7.23;;
18983;SDS011;9626;52.552;13.436;2024-01-11T04:39:03;16.90;;;7.33;;
18983;SDS011;9626;52.552;13.436;2024-01-11T04:41:29;23.73;;;10.67;;
18983;SDS011;9626;52.552;13.436;2024-01-11T04:43:55;18.00;;;9.00;;
18983;SDS011;9626;52.552;13.436;2024-01-11T04:46:22;21.83;;;9.13;;
18983;SDS011;9626;52.552;13.436;2024-01-11T04:48:48;21.27;;;10.23;;
18983;SDS011;9626;52.552;13.436;2024-01-11T04:51:15;19.07;;;7.87;;
18983;SDS011;9626;52.552;13.436;2024-01-11T04:53:43;23.33;;;7.83;;
18983;SDS011;9626;52.552;13.436;2024-01-11T04:56:10;19.33;;;7.80;;
18983;SDS011;9626;52.552;13.436;2024-01-11T04:58:39;20.63;;;8.00;;
18983;SDS011;9626;52.552;13.436;2024-01-11T05:01:06;28.20;;;8.50;;
18983;SDS011;9626;52.552;13.436;2024-01-11T05:03:32;20.30;;;8.03;;
18983;SDS011;9626;52.552;13.436;2024-01-11T05:05:59;18.27;;;8.53;;
18983;SDS011;9626;52.552;13.436;2024-01-11T05:08:25;22.20;;;8.07;;
18983;SDS011;9626;52.552;13.436;2024-01-11T05:10:52;24.33;;;8.77;;
18983;SDS011;9626;52.552;13.436;2024-01-11T05:13:18;20.00;;;8.60;;
18983;SDS011;9626;52.552;13.436;2024-01-11T05:15:45;23.27;;;9.27;;
18983;SDS011;9626;52.552;13.436;2024-01-11T05:18:11;18.13;;;7.83;;
18983;SDS011;9626;52.552;13.436;2024-01-11T05:20:38;20.83;;;8.10;;
18983;SDS011;9626;52.552;13.436;2024-01-11T05:23:04;22.67;;;8.03;;
18983;SDS011;9626;52.552;13.436;2024-01-11T05:25:30;22.80;;;7.83;;
18983;SDS011;9626;52.552;13.436;2024-01-11T05:28:00;28.60;;;10.60;;
18983;SDS011;9626;52.552;13.436;2024-01-11T05:30:27;29.13;;;8.40;;
18983;SDS011;9626;52.552;13.436;2024-01-11T05:32:53;26.00;;;11.50;;
18983;SDS011;9626;52.552;13.436;2024-01-11T05:35:20;22.00;;;8.00;;
18983;SDS011;9626;52.552;13.436;2024-01-11T05:37:46;26.20;;;12.30;;
18983;SDS011;9626;52.552;13.436;2024-01-11T05:40:12;28.43;;;12.70;;
18983;SDS011;9626;52.552;13.436;2024-01-11T05:42:39;28.03;;;12.23;;
18983;SDS011;9626;52.552;13.436;2024-01-11T05:45:05;21.93;;;9.07;;
18983;SDS011;9626;52.552;13.436;2024-01-11T05:47:32;26.33;;;9.53;;
18983;SDS011;9626;52.552;13.436;2024-01-11T05:49:58;24.27;;;9.57;;
18983;SDS011;9626;52.552;13.436;2024-01-11T05:52:24;39.50;;;10.07;;
18983;SDS011;9626;52.552;13.436;2024-01-11T05:54:50;25.73;;;10.27;;
18983;SDS011;9626;52.552;13.436;2024-01-11T05:57:16;28.10;;;9.57;;
18983;SDS011;9626;52.552;13.436;2024-01-11T05:59:45;25.50;;;10.23;;
18983;SDS011;9626;52.552;13.436;2024-01-11T06:02:12;32.93;;;9.90;;
18983;SDS011;9626;52.552;13.436;2024-01-11T06:04:39;27.30;;;10.53;;
18983;SDS011;9626;52.552;13.436;2024-01-11T06:07:05;27.67;;;9.97;;
18983;SDS011;9626;52.552;13.436;2024-01-11T06:09:31;28.70;;;10.20;;
18983;SDS011;9626;52.552;13.436;2024-01-11T06:11:57;25.73;;;10.77;;
18983;SDS011;9626;52.552;13.436;2024-01-11T06:14:23;25.77;;;9.47;;
18983;SDS011;9626;52.552;13.436;2024-01-11T06:16:49;30.73;;;11.10;;
18983;SDS011;9626;52.552;13.436;2024-01-11T06:19:15;29.47;;;12.10;;
18983;SDS011;9626;52.552;13.436;2024-01-11T06:21:41;27.53;;;10.67;;
18983;SDS011;9626;52.552;13.436;2024-01-11T06:24:07;27.50;;;10.67;;
18983;SDS011;9626;52.552;13.436;2024-01-11T06:26:33;28.23;;;10.67;;
18983;SDS011;9626;52.552;13.436;2024-01-11T06:29:00;27.97;;;11.53;;
18983;SDS011;9626;52.552;13.436;2024-01-11T06:31:26;27.60;;;10.30;;
18983;SDS011;9626;52.552;13.436;2024-01-11T06:33:52;28.17;;;11.43;;
18983;SDS011;9626;52.552;13.436;2024-01-11T06:36:18;26.90;;;10.30;;
18983;SDS011;9626;52.552;13.436;2024-01-11T06:38:44;31.73;;;10.27;;
18983;SDS011;9626;52.552;13.436;2024-01-11T06:41:13;32.03;;;10.53;;
18983;SDS011;9626;52.552;13.436;2024-01-11T06:43:39;28.63;;;11.53;;
18983;SDS011;9626;52.552;13.436;2024-01-11T06:46:06;25.67;;;10.67;;
18983;SDS011;9626;52.552;13.436;2024-01-11T06:48:32;27.73;;;10.53;;
18983;SDS011;9626;52.552;13.436;2024-01-11T06:50:58;22.37;;;9.20;;
18983;SDS011;9626;52.552;13.436;2024-01-11T06:53:25;26.50;;;11.63;;
18983;SDS011;9626;52.552;13.436;2024-01-11T06:55:50;29.40;;;11.30;;
18983;SDS011;9626;52.552;13.436;2024-01-11T06:58:20;28.73;;;11.73;;
18983;SDS011;9626;52.552;13.436;2024-01-11T07:00:48;24.90;;;9.80;;
18983;SDS011;9626;52.552;13.436;2024-01-11T07:03:15;37.77;;;10.87;;
18983;SDS011;9626;52.552;13.436;2024-01-11T07:05:41;35.73;;;11.40;;
18983;SDS011;9626;52.552;13.436;2024-01-11T07:08:07;27.60;;;10.23;;
18983;SDS011;9626;52.552;13.436;2024-01-11T07:10:34;29.80;;;11.63;;
18983;SDS011;9626;52.552;13.436;2024-01-11T07:13:00;30.23;;;11.63;;
18983;SDS011;9626;52.552;13.436;2024-01-11T07:15:26;27.90;;;11.30;;
18983;SDS011;9626;52.552;13.436;2024-01-11T07:17:52;29.60;;;11.63;;
18983;SDS011;9626;52.552;13.436;2024-01-11T07:20:19;29.00;;;12.13;;
18983;SDS011;9626;52.552;13.436;2024-01-11T07:22:45;36.73;;;13.13;;
18983;SDS011;9626;52.552;13.436;2024-01-11T07:25:11;33.60;;;11.07;;
18983;SDS011;9626;52.552;13.436;2024-01-11T07:27:38;29.50;;;12.43;;
18983;SDS011;9626;52.552;13.436;2024-01-11T07:30:04;30.70;;;12.10;;
18983;SDS011;9626;52.552;13.436;2024-01-11T07:32:33;33.17;;;12.50;;
18983;SDS011;9626;52.552;13.436;2024-01-11T07:34:59;26.70;;;11.60;;
18983;SDS011;9626;52.552;13.436;2024-01-11T07:37:25;28.53;;;11.60;;
18983;SDS011;9626;52.552;13.436;2024-01-11T07:39:52;31.57;;;12.23;;
18983;SDS011;9626;52.552;13.436;2024-01-11T07:42:18;34.27;;;13.23;;
18983;SDS011;9626;52.552;13.436;2024-01-11T07:44:47;34.10;;;12.40;;
18983;SDS011;9626;52.552;13.436;2024-01-11T07:47:14;31.90;;;12.33;;
18983;SDS011;9626;52.552;13.436;2024-01-11T07:49:40;35.30;;;13.70;;
18983;SDS011;9626;52.552;13.436;2024-01-11T07:52:06;30.70;;;11.97;;
18983;SDS011;9626;52.552;13.436;2024-01-11T07:54:32;31.90;;;11.23;;
18983;SDS011;9626;52.552;13.436;2024-01-11T07:56:58;32.20;;;12.27;;
18983;SDS011;9626;52.552;13.436;2024-01-11T07:59:24;34.10;;;13.33;;
18983;SDS011;9626;52.552;13.436;2024-01-11T08:01:50;27.30;;;11.13;;
18983;SDS011;9626;52.552;13.436;2024-01-11T08:04:18;34.27;;;13.63;;
18983;SDS011;9626;52.552;13.436;2024-01-11T08:06:44;32.97;;;13.30;;
18983;SDS011;9626;52.552;13.436;2024-01-11T08:09:10;33.97;;;13.10;;
18983;SDS011;9626;52.552;13.436;2024-01-11T08:11:36;37.63;;;13.33;;
18983;SDS011;9626;52.552;13.436;2024-01-11T08:14:03;32.90;;;13.33;;
18983;SDS011;9626;52.552;13.436;2024-01-11T08:16:31;28.23;;;12.17;;
18983;SDS011;9626;52.552;13.436;2024-01-11T08:18:57;31.00;;;11.63;;
18983;SDS011;9626;52.552;13.436;2024-01-11T08:21:23;28.80;;;12.63;;
18983;SDS011;9626;52.552;13.436;2024-01-11T08:23:50;38.13;;;12.80;;
18983;SDS011;9626;52.552;13.436;2024-01-11T08:26:16;28.87;;;12.17;;
18983;SDS011;9626;52.552;13.436;2024-01-11T08:28:44;32.23;;;13.27;;
18983;SDS011;9626;52.552;13.436;2024-01-11T08:31:10;31.93;;;13.23;;
18983;SDS011;9626;52.552;13.436;2024-01-11T08:33:36;27.03;;;11.60;;
18983;SDS011;9626;52.552;13.436;2024-01-11T08:36:03;30.70;;;13.43;;
18983;SDS011;9626;52.552;13.436;2024-01-11T08:38:30;32.87;;;13.20;;
18983;SDS011;9626;52.552;13.436;2024-01-11T08:40:56;37.13;;;13.10;;
18983;SDS011;9626;52.552;13.436;2024-01-11T08:43:22;32.53;;;12.30;;
18983;SDS011;9626;52.552;13.436;2024-01-11T08:45:48;32.90;;;13.93;;
18983;SDS011;9626;52.552;13.436;2024-01-11T08:48:14;34.23;;;12.70;;
18983;SDS011;9626;52.552;13.436;2024-01-11T08:50:40;31.27;;;12.67;;
18983;SDS011;9626;52.552;13.436;2024-01-11T08:53:06;34.27;;;14.13;;
18983;SDS011;9626;52.552;13.436;2024-01-11T08:55:32;35.03;;;13.80;;
18983;SDS011;9626;52.552;13.436;2024-01-11T08:57:59;34.33;;;14.50;;
18983;SDS011;9626;52.552;13.436;2024-01-11T09:00:26;38.80;;;13.53;;
18983;SDS011;9626;52.552;13.436;2024-01-11T09:02:52;31.97;;;13.67;;
18983;SDS011;9626;52.552;13.436;2024-01-11T09:05:18;32.93;;;14.87;;
18983;SDS011;9626;52.552;13.436;2024-01-11T09:07:44;32.30;;;13.97;;
18983;SDS011;9626;52.552;13.436;2024-01-11T09:10:10;33.23;;;13.77;;
18983;SDS011;9626;52.552;13.436;2024-01-11T09:12:36;34.70;;;11.87;;
18983;SDS011;9626;52.552;13.436;2024-01-11T09:15:03;34.33;;;14.20;;
18983;SDS011;9626;52.552;13.436;2024-01-11T09:17:29;36.13;;;14.97;;
18983;SDS011;9626;52.552;13.436;2024-01-11T09:19:55;30.70;;;12.77;;
18983;SDS011;9626;52.552;13.436;2024-01-11T09:22:21;27.37;;;11.40;;
18983;SDS011;9626;52.552;13.436;2024-01-11T09:24:47;32.63;;;13.80;;
18983;SDS011;9626;52.552;13.436;2024-01-11T09:27:13;34.73;;;13.50;;
18983;SDS011;9626;52.552;13.436;2024-01-11T09:29:43;34.10;;;13.80;;
18983;SDS011;9626;52.552;13.436;2024-01-11T09:32:09;35.37;;;14.80;;
18983;SDS011;9626;52.552;13.436;2024-01-11T09:34:35;28.10;;;13.23;;
18983;SDS011;9626;52.552;13.436;2024-01-11T09:37:01;34.83;;;14.93;;
18983;SDS011;9626;52.552;13.436;2024-01-11T09:39:29;39.77;;;13.70;;
18983;SDS011;9626;52.552;13.436;2024-01-11T09:41:59;35.17;;;14.63;;
18983;SDS011;9626;52.552;13.436;2024-01-11T09:44:33;32.23;;;13.97;;
18983;SDS011;9626;52.552;13.436;2024-01-11T09:47:00;38.20;;;14.40;;
18983;SDS011;9626;52.552;13.436;2024-01-11T09:49:27;35.77;;;13.63;;
18983;SDS011;9626;52.552;13.436;2024-01-11T09:51:56;31.43;;;14.37;;
18983;SDS011;9626;52.552;13.436;2024-01-11T09:54:23;34.63;;;15.60;;
18983;SDS011;9626;52.552;13.436;2024-01-11T09:56:50;30.20;;;12.43;;
18983;SDS011;9626;52.552;13.436;2024-01-11T09:59:19;33.03;;;14.73;;
18983;SDS011;9626;52.552;13.436;2024-01-11T10:01:48;29.43;;;13.77;;
18983;SDS011;9626;52.552;13.436;2024-01-11T10:04:15;39.30;;;16.40;;
18983;SDS011;9626;52.552;13.436;2024-01-11T10:06:42;35.70;;;14.97;;
18983;SDS011;9626;52.552;13.436;2024-01-11T10:09:08;36.17;;;16.67;;
18983;SDS011;9626;52.552;13.436;2024-01-11T10:11:35;35.27;;;15.53;;
18983;SDS011;9626;52.552;13.436;2024-01-11T10:14:01;33.93;;;14.57;;
18983;SDS011;9626;52.552;13.436;2024-01-11T10:16:28;32.67;;;13.87;;
18983;SDS011;9626;52.552;13.436;2024-01-11T10:18:57;29.97;;;13.27;;
18983;SDS011;9626;52.552;13.436;2024-01-11T10:21:23;30.27;;;14.73;;
18983;SDS011;9626;52.552;13.436;2024-01-11T10:23:50;33.27;;;14.37;;
18983;SDS011;9626;52.552;13.436;2024-01-11T10:26:17;29.30;;;12.87;;
18983;SDS011;9626;52.552;13.436;2024-01-11T10:28:47;26.67;;;12.17;;
18983;SDS011;9626;52.552;13.436;2024-01-11T10:31:14;28.33;;;11.57;;
18983;SDS011;9626;52.552;13.436;2024-01-11T10:33:44;26.60;;;12.37;;
18983;SDS011;9626;52.552;13.436;2024-01-11T10:36:11;24.17;;;12.37;;
18983;SDS011;9626;52.552;13.436;2024-01-11T10:38:38;27.93;;;12.80;;
18983;SDS011;9626;52.552;13.436;2024-01-11T10:41:05;25.47;;;12.77;;
18983;SDS011;9626;52.552;13.436;2024-01-11T10:43:32;25.07;;;11.67;;
18983;SDS011;9626;52.552;13.436;2024-01-11T10:46:02;24.33;;;12.17;;
18983;SDS011;9626;52.552;13.436;2024-01-11T10:48:33;25.10;;;12.30;;
18983;SDS011;9626;52.552;13.436;2024-01-11T10:51:05;26.03;;;11.27;;
18983;SDS011;9626;52.552;13.436;2024-01-11T10:53:41;24.03;;;12.13;;
18983;SDS011;9626;52.552;13.436;2024-01-11T10:56:11;24.13;;;11.47;;
18983;SDS011;9626;52.552;13.436;2024-01-11T10:58:42;23.30;;;10.93;;
18983;SDS011;9626;52.552;13.436;2024-01-11T11:01:10;22.27;;;10.50;;
18983;SDS011;9626;52.552;13.436;2024-01-11T11:03:37;22.70;;;10.63;;
18983;SDS011;9626;52.552;13.436;2024-01-11T11:06:05;19.67;;;11.03;;
18983;SDS011;9626;52.552;13.436;2024-01-11T11:08:35;20.70;;;11.00;;
18983;SDS011;9626;52.552;13.436;2024-01-11T11:11:04;22.07;;;11.80;;
18983;SDS011;9626;52.552;13.436;2024-01-11T11:13:32;26.83;;;10.60;;
18983;SDS011;9626;52.552;13.436;2024-01-11T11:15:59;20.30;;;11.00;;
18983;SDS011;9626;52.552;13.436;2024-01-11T11:18:25;22.13;;;11.93;;
18983;SDS011;9626;52.552;13.436;2024-01-11T11:20:52;21.60;;;11.47;;
18983;SDS011;9626;52.552;13.436;2024-01-11T11:23:19;20.53;;;11.53;;
18983;SDS011;9626;52.552;13.436;2024-01-11T11:25:46;20.83;;;11.57;;
18983;SDS011;9626;52.552;13.436;2024-01-11T11:28:13;20.97;;;10.90;;
18983;SDS011;9626;52.552;13.436;2024-01-11T11:30:42;19.13;;;10.27;;
18983;SDS011;9626;52.552;13.436;2024-01-11T11:33:10;22.80;;;11.60;;
18983;SDS011;9626;52.552;13.436;2024-01-11T11:35:41;22.60;;;11.43;;
18983;SDS011;9626;52.552;13.436;2024-01-11T11:38:16;21.67;;;11.07;;
18983;SDS011;9626;52.552;13.436;2024-01-11T11:40:50;21.60;;;10.57;;
18983;SDS011;9626;52.552;13.436;2024-01-11T11:43:18;19.53;;;10.87;;
18983;SDS011;9626;52.552;13.436;2024-01-11T11:45:46;20.00;;;10.97;;
18983;SDS011;9626;52.552;13.436;2024-01-11T11:53:38;18.20;;;10.90;;
18983;SDS011;9626;52.552;13.436;2024-01-11T11:56:06;23.20;;;11.80;;
18983;SDS011;9626;52.552;13.436;2024-01-11T11:58:35;22.87;;;12.40;;
18983;SDS011;9626;52.552;13.436;2024-01-11T12:01:02;22.17;;;11.47;;
18983;SDS011;9626;52.552;13.436;2024-01-11T12:03:29;21.03;;;10.97;;
18983;SDS011;9626;52.552;13.436;2024-01-11T12:06:03;23.77;;;12.60;;
18983;SDS011;9626;52.552;13.436;2024-01-11T12:08:30;24.13;;;11.77;;
18983;SDS011;9626;52.552;13.436;2024-01-11T12:10:57;26.13;;;13.57;;
18983;SDS011;9626;52.552;13.436;2024-01-11T12:13:24;24.90;;;12.77;;
18983;SDS011;9626;52.552;13.436;2024-01-11T12:15:51;26.87;;;13.20;;
18983;SDS011;9626;52.552;13.436;2024-01-11T12:18:18;25.67;;;13.47;;
18983;SDS011;9626;52.552;13.436;2024-01-11T12:20:45;25.87;;;13.30;;
18983;SDS011;9626;52.552;13.436;2024-01-11T12:23:11;26.63;;;12.73;;
18983;SDS011;9626;52.552;13.436;2024-01-11T12:25:42;25.20;;;13.40;;
18983;SDS011;9626;52.552;13.436;2024-01-11T12:28:08;24.07;;;13.63;;
18983;SDS011;9626;52.552;13.436;2024-01-11T12:30:35;25.67;;;12.90;;
18983;SDS011;9626;52.552;13.436;2024-01-11T12:33:02;25.53;;;13.20;;
18983;SDS011;9626;52.552;13.436;2024-01-11T12:35:28;26.33;;;12.40;;
18983;SDS011;9626;52.552;13.436;2024-01-11T12:37:58;25.67;;;13.17;;
18983;SDS011;9626;52.552;13.436;2024-01-11T12:40:26;27.30;;;13.17;;
18983;SDS011;9626;52.552;13.436;2024-01-11T12:42:52;26.73;;;13.97;;
18983;SDS011;9626;52.552;13.436;2024-01-11T12:45:19;25.40;;;12.17;;
18983;SDS011;9626;52.552;13.436;2024-01-11T12:47:45;25.67;;;13.27;;
18983;SDS011;9626;52.552;13.436;2024-01-11T12:50:12;21.47;;;12.70;;
18983;SDS011;9626;52.552;13.436;2024-01-11T12:52:38;22.27;;;11.87;;
18983;SDS011;9626;52.552;13.436;2024-01-11T12:55:06;24.47;;;12.87;;
18983;SDS011;9626;52.552;13.436;2024-01-11T12:57:35;21.10;;;11.03;;
18983;SDS011;9626;52.552;13.436;2024-01-11T13:00:11;20.90;;;11.47;;
18983;SDS011;9626;52.552;13.436;2024-01-11T13:02:39;22.10;;;11.13;;
18983;SDS011;9626;52.552;13.436;2024-01-11T13:05:05;21.97;;;10.73;;
18983;SDS011;9626;52.552;13.436;2024-01-11T13:07:33;19.73;;;10.63;;
18983;SDS011;9626;52.552;13.436;2024-01-11T13:10:02;19.93;;;10.63;;
18983;SDS011;9626;52.552;13.436;2024-01-11T13:12:29;19.00;;;10.17;;
18983;SDS011;9626;52.552;13.436;2024-01-11T13:14:56;22.00;;;10.40;;
18983;SDS011;9626;52.552;13.436;2024-01-11T13:17:22;18.60;;;10.20;;
18983;SDS011;9626;52.552;13.436;2024-01-11T13:19:48;14.87;;;8.47;;
18983;SDS011;9626;52.552;13.436;2024-01-11T13:22:14;20.13;;;9.90;;
18983;SDS011;9626;52.552;13.436;2024-01-11T13:24:40;20.20;;;10.37;;
18983;SDS011;9626;52.552;13.436;2024-01-11T13:27:06;20.67;;;10.30;;
18983;SDS011;9626;52.552;13.436;2024-01-11T13:29:32;19.17;;;9.67;;
18983;SDS011;9626;52.552;13.436;2024-01-11T13:31:58;19.63;;;10.17;;
18983;SDS011;9626;52.552;13.436;2024-01-11T13:34:24;18.77;;;9.37;;
18983;SDS011;9626;52.552;13.436;2024-01-11T13:36:50;19.77;;;9.67;;
18983;SDS011;9626;52.552;13.436;2024-01-11T13:39:16;19.50;;;10.40;;
18983;SDS011;9626;52.552;13.436;2024-01-11T13:41:44;19.43;;;9.57;;
18983;SDS011;9626;52.552;13.436;2024-01-11T13:44:10;20.47;;;10.53;;
18983;SDS011;9626;52.552;13.436;2024-01-11T13:46:37;22.03;;;10.13;;
18983;SDS011;9626;52.552;13.436;2024-01-11T13:49:03;17.97;;;9.53;;
18983;SDS011;9626;52.552;13.436;2024-01-11T13:51:30;23.83;;;11.80;;
18983;SDS011;9626;52.552;13.436;2024-01-11T13:53:58;21.57;;;11.83;;
18983;SDS011;9626;52.552;13.436;2024-01-11T13:56:27;24.67;;;10.93;;
18983;SDS011;9626;52.552;13.436;2024-01-11T13:58:53;19.73;;;10.90;;
18983;SDS011;9626;52.552;13.436;2024-01-11T14:01:19;20.33;;;10.53;;
18983;SDS011;9626;52.552;13.436;2024-01-11T14:03:45;19.40;;;10.67;;
18983;SDS011;9626;52.552;13.436;2024-01-11T14:06:11;18.80;;;10.40;;
18983;SDS011;9626;52.552;13.436;2024-01-11T14:08:38;18.20;;;10.07;;
18983;SDS011;9626;52.552;13.436;2024-01-11T14:11:04;17.67;;;8.77;;
18983;SDS011;9626;52.552;13.436;2024-01-11T14:13:30;18.67;;;10.10;;
18983;SDS011;9626;52.552;13.436;2024-01-11T14:15:56;20.10;;;9.00;;
18983;SDS011;9626;52.552;13.436;2024-01-11T14:18:23;17.53;;;9.73;;
18983;SDS011;9626;52.552;13.436;2024-01-11T14:20:49;19.33;;;8.67;;
18983;SDS011;9626;52.552;13.436;2024-01-11T14:23:15;14.33;;;7.63;;
18983;SDS011;9626;52.552;13.436;2024-01-11T14:25:41;17.77;;;8.73;;
18983;SDS011;9626;52.552;13.436;2024-01-11T14:28:07;15.10;;;8.30;;